CheckWX is a tool to help pilots better visualize weather data.  It is not intended as a substitute for an official pre-flight weather briefing.

12:26:13 UTC

KDLH TAF
Duluth International Airport
Duluth, Minnesota, USA
KDLH 221120Z 2212/2312 01006KT P6SM SKC FM222200 VRB03KT P6SM SKC

Mar-22@
12:00 UTC

Mar-22 @ 12:00 UTC

Mar-22@
22:00 UTC

Mar-22 @ 22:00 UTC

KDLH 221120Z 2212/2312 01006KT P6SM SKC
Wind
  • 010° at 6 KTS
Cloud Levels
  • Clear skies

Mar-22@
22:00 UTC

Mar-22 @ 22:00 UTC

Mar-23@
12:00 UTC

Mar-23 @ 12:00 UTC

FM222200 VRB03KT P6SM SKC

From

From Standard forecast or significant change

Wind
  • Variable at 3 KTS
Cloud Levels
  • Clear skies